Time;durP1;ratioP1;P1;durP2;ratioP2;P2;SDS_P1;SDS_P2;PMS_P1;PMS_P2;Temp;Humidity;BMP_temperature;BMP_pressure;BME280_temperature;BME280_humidity;BME280_pressure;Samples;Min_cycle;Max_cycle;Signal;HPM_P1;HPM_P2
2022/06/18 00:00:40;;;;;;;;;;;27.20;43.90;;;;;;5058044;28;19909;-62
2022/06/18 00:03:06;;;;;;;;;;;27.20;44.00;;;;;;5075718;28;19954;-62
2022/06/18 00:05:31;;;;;;;;;;;27.20;44.00;;;;;;5075821;28;19966;-62
2022/06/18 00:07:57;;;;;;;;;;;27.20;43.90;;;;;;5075670;28;19908;-62
2022/06/18 00:10:23;;;;;;;;;;;27.20;44.10;;;;;;5075726;28;19908;-62
2022/06/18 00:15:33;;;;;;;;;;;27.20;44.10;;;;;;5060490;28;19958;-62
2022/06/18 00:17:58;;;;;;;;;;;27.20;44.10;;;;;;5057781;28;19961;-62
2022/06/18 00:20:25;;;;;;;;;;;27.20;44.10;;;;;;5075514;28;20329;-62
2022/06/18 00:22:51;;;;;;;;;;;27.20;44.20;;;;;;5057090;28;19909;-62
2022/06/18 00:25:21;;;;;;;;;;;27.20;44.30;;;;;;5057637;28;19908;-62
2022/06/18 00:27:47;;;;;;;;;;;27.20;44.10;;;;;;5075709;28;19963;-62
2022/06/18 00:30:13;;;;;;;;;;;27.20;44.00;;;;;;5057530;28;20382;-62
2022/06/18 00:32:38;;;;;;;;;;;27.20;44.00;;;;;;5075329;28;19919;-62
2022/06/18 00:35:04;;;;;;;;;;;27.20;44.00;;;;;;5075255;28;19908;-62
2022/06/18 00:37:29;;;;;;;;;;;27.20;44.10;;;;;;5075437;28;19913;-62
2022/06/18 00:39:55;;;;;;;;;;;27.10;44.00;;;;;;5075148;28;19915;-62
2022/06/18 00:42:23;;;;;;;;;;;27.10;43.90;;;;;;5075123;28;20273;-62
2022/06/18 00:44:53;;;;;;;;;;;27.10;44.00;;;;;;5075375;28;19916;-61
2022/06/18 00:47:22;;;;;;;;;;;27.10;44.00;;;;;;5057634;28;19928;-62
2022/06/18 00:50:05;;;;;;;;;;;27.10;44.00;;;;;;5075012;28;19917;-61
2022/06/18 00:52:33;;;;;;;;;;;27.10;44.00;;;;;;5074935;28;19920;-61
2022/06/18 00:55:00;;;;;;;;;;;27.10;44.10;;;;;;5074867;28;19920;-62
2022/06/18 00:57:31;;;;;;;;;;;27.10;44.00;;;;;;5074828;28;19963;-62
2022/06/18 01:00:02;;;;;;;;;;;27.10;43.90;;;;;;5064253;28;19939;-62
2022/06/18 01:02:29;;;;;;;;;;;27.10;43.90;;;;;;5074746;28;20003;-62
2022/06/18 01:04:55;;;;;;;;;;;27.10;43.80;;;;;;5090227;28;19916;-62
2022/06/18 01:07:28;;;;;;;;;;;27.10;44.00;;;;;;5074926;28;19909;-62
2022/06/18 01:09:53;;;;;;;;;;;27.10;44.00;;;;;;5074552;28;19958;-62
2022/06/18 01:12:19;;;;;;;;;;;27.10;43.90;;;;;;5056596;28;19913;-62
2022/06/18 01:14:44;;;;;;;;;;;27.10;43.90;;;;;;5074560;28;19909;-62
2022/06/18 01:17:10;;;;;;;;;;;27.10;43.90;;;;;;5056385;28;19915;-62
2022/06/18 01:19:37;;;;;;;;;;;27.10;44.00;;;;;;5074331;28;19909;-62
2022/06/18 01:22:09;;;;;;;;;;;27.10;43.90;;;;;;5074530;28;19912;-62
2022/06/18 01:24:38;;;;;;;;;;;27.10;43.90;;;;;;5073028;28;19916;-62
2022/06/18 01:27:03;;;;;;;;;;;27.10;43.90;;;;;;5056665;28;19909;-62
2022/06/18 01:29:29;;;;;;;;;;;27.00;43.80;;;;;;5074432;28;19954;-62
2022/06/18 01:31:54;;;;;;;;;;;27.00;43.80;;;;;;5074144;28;20284;-62
2022/06/18 01:34:20;;;;;;;;;;;27.00;44.00;;;;;;5073218;28;19909;-62
2022/06/18 01:36:45;;;;;;;;;;;27.10;44.00;;;;;;5073979;28;19908;-62
2022/06/18 01:39:12;;;;;;;;;;;27.00;43.90;;;;;;5056045;28;19913;-62
2022/06/18 01:41:52;;;;;;;;;;;27.00;44.00;;;;;;5074005;28;19909;-62
2022/06/18 01:44:44;;;;;;;;;;;27.00;43.90;;;;;;5058091;28;19912;-62
2022/06/18 01:47:14;;;;;;;;;;;27.00;43.90;;;;;;5070636;28;20318;-61
2022/06/18 01:49:41;;;;;;;;;;;27.00;44.10;;;;;;5074117;28;20314;-61
2022/06/18 01:52:08;;;;;;;;;;;27.00;44.00;;;;;;5056259;28;19908;-62
2022/06/18 01:54:39;;;;;;;;;;;27.00;44.10;;;;;;5056313;28;20276;-62
2022/06/18 01:57:05;;;;;;;;;;;27.00;43.90;;;;;;5055575;28;19915;-62
2022/06/18 01:59:32;;;;;;;;;;;27.00;44.10;;;;;;5073953;28;20445;-62
2022/06/18 02:01:58;;;;;;;;;;;27.00;43.90;;;;;;5055718;28;20394;-62
2022/06/18 02:04:23;;;;;;;;;;;27.00;44.00;;;;;;5055574;28;19999;-62
2022/06/18 02:06:49;;;;;;;;;;;27.00;44.10;;;;;;5055598;28;19912;-62
2022/06/18 02:09:30;;;;;;;;;;;27.00;44.10;;;;;;5055745;28;19943;-62
2022/06/18 02:11:56;;;;;;;;;;;27.00;44.10;;;;;;5055615;28;19909;-62
2022/06/18 02:14:21;;;;;;;;;;;26.90;44.00;;;;;;5055626;28;19996;-62
2022/06/18 02:16:47;;;;;;;;;;;26.90;44.00;;;;;;5073331;28;20284;-62
2022/06/18 02:19:14;;;;;;;;;;;26.90;44.10;;;;;;5073310;28;20030;-62
2022/06/18 02:21:49;;;;;;;;;;;27.00;44.00;;;;;;5073233;28;19913;-62
2022/06/18 02:24:15;;;;;;;;;;;26.90;44.10;;;;;;5055413;28;19915;-62
2022/06/18 02:26:41;;;;;;;;;;;26.90;44.10;;;;;;5088896;28;19909;-62
2022/06/18 02:29:09;;;;;;;;;;;26.90;44.00;;;;;;5055576;28;19909;-62
2022/06/18 02:31:34;;;;;;;;;;;26.90;44.00;;;;;;5055372;28;20364;-62
2022/06/18 02:34:04;;;;;;;;;;;26.90;44.00;;;;;;5072988;28;19962;-62
2022/06/18 02:36:35;;;;;;;;;;;26.90;44.00;;;;;;5073179;28;19908;-62
2022/06/18 02:39:21;;;;;;;;;;;26.90;44.10;;;;;;5073089;28;20269;-62
2022/06/18 02:41:46;;;;;;;;;;;26.90;44.10;;;;;;5073070;28;19908;-62
2022/06/18 02:44:12;;;;;;;;;;;26.80;44.00;;;;;;5072969;28;19916;-62
2022/06/18 02:46:37;;;;;;;;;;;26.90;44.00;;;;;;5054894;28;19913;-62
2022/06/18 02:49:03;;;;;;;;;;;26.90;44.10;;;;;;5054962;28;20319;-62
2022/06/18 02:51:30;;;;;;;;;;;26.90;44.10;;;;;;5055080;28;19913;-62
2022/06/18 02:53:56;;;;;;;;;;;26.90;44.00;;;;;;5072950;28;19912;-62
2022/06/18 02:56:22;;;;;;;;;;;26.90;44.10;;;;;;5055013;28;20425;-62
2022/06/18 02:58:47;;;;;;;;;;;26.80;44.00;;;;;;5088388;28;20007;-62
2022/06/18 03:01:14;;;;;;;;;;;26.80;44.10;;;;;;5072768;28;20385;-62
2022/06/18 03:03:41;;;;;;;;;;;26.80;44.10;;;;;;5054929;28;20257;-62
2022/06/18 03:06:07;;;;;;;;;;;26.80;44.10;;;;;;5072799;28;20287;-62
2022/06/18 03:08:32;;;;;;;;;;;26.80;44.00;;;;;;5054807;28;19908;-62
2022/06/18 03:13:42;;;;;;;;;;;26.80;44.00;;;;;;5072792;28;20049;-62
2022/06/18 03:16:08;;;;;;;;;;;26.80;44.10;;;;;;5072706;28;20006;-62
2022/06/18 03:18:34;;;;;;;;;;;26.80;44.20;;;;;;5072620;28;19912;-62
2022/06/18 03:21:19;;;;;;;;;;;26.80;44.00;;;;;;5072734;28;20003;-62
2022/06/18 03:23:45;;;;;;;;;;;26.80;44.00;;;;;;5072077;28;20398;-62
2022/06/18 03:26:10;;;;;;;;;;;26.80;44.00;;;;;;5088185;28;19909;-62
2022/06/18 03:28:36;;;;;;;;;;;26.80;44.00;;;;;;5072585;28;19915;-62
2022/06/18 03:31:01;;;;;;;;;;;26.80;44.00;;;;;;5072563;28;19999;-62
2022/06/18 03:33:27;;;;;;;;;;;26.80;44.70;;;;;;5072597;28;20372;-62
2022/06/18 03:35:52;;;;;;;;;;;26.80;44.00;;;;;;5072550;28;20359;-62
2022/06/18 03:38:18;;;;;;;;;;;26.80;44.10;;;;;;5072395;28;20312;-62
2022/06/18 03:40:44;;;;;;;;;;;26.70;44.10;;;;;;5072533;28;19915;-62
2022/06/18 03:43:10;;;;;;;;;;;26.80;44.10;;;;;;5054846;28;19916;-62
2022/06/18 03:45:37;;;;;;;;;;;26.70;44.00;;;;;;5054606;28;19912;-61
2022/06/18 03:48:02;;;;;;;;;;;26.70;44.00;;;;;;5072329;28;20014;-62
2022/06/18 03:50:28;;;;;;;;;;;26.70;44.20;;;;;;5054427;28;19912;-62
2022/06/18 03:52:53;;;;;;;;;;;26.70;44.10;;;;;;5072370;28;19973;-62
2022/06/18 03:55:19;;;;;;;;;;;26.70;44.10;;;;;;5072287;28;19934;-62
2022/06/18 03:57:44;;;;;;;;;;;26.70;44.10;;;;;;5073241;28;19913;-62
2022/06/18 04:00:13;;;;;;;;;;;26.70;44.10;;;;;;5075904;28;20018;-62
2022/06/18 04:02:38;;;;;;;;;;;26.70;44.20;;;;;;5057975;28;20400;-62
2022/06/18 04:05:04;;;;;;;;;;;26.70;44.20;;;;;;5075742;28;19920;-62
2022/06/18 04:07:29;;;;;;;;;;;26.70;44.20;;;;;;5075895;28;19908;-61
2022/06/18 04:09:56;;;;;;;;;;;26.70;44.20;;;;;;5075653;28;19952;-61
2022/06/18 04:12:22;;;;;;;;;;;26.70;44.20;;;;;;5075956;28;19955;-61
2022/06/18 04:14:47;;;;;;;;;;;26.70;44.20;;;;;;5075637;28;19971;-61
2022/06/18 04:17:13;;;;;;;;;;;26.70;44.20;;;;;;5075504;28;19912;-62
2022/06/18 04:19:39;;;;;;;;;;;26.60;44.10;;;;;;5075651;28;19912;-62
2022/06/18 04:22:04;;;;;;;;;;;26.70;44.20;;;;;;5075854;28;19969;-62
2022/06/18 04:24:29;;;;;;;;;;;26.70;44.20;;;;;;5091396;28;19908;-62
2022/06/18 04:26:55;;;;;;;;;;;26.60;44.20;;;;;;5075428;28;19915;-61
2022/06/18 04:29:21;;;;;;;;;;;26.60;44.10;;;;;;5075376;28;19995;-62
2022/06/18 04:31:46;;;;;;;;;;;26.60;44.10;;;;;;5075559;28;19999;-62
2022/06/18 04:34:12;;;;;;;;;;;26.60;44.20;;;;;;5075519;28;19915;-62
2022/06/18 04:36:38;;;;;;;;;;;26.60;44.20;;;;;;5075317;28;20372;-61
2022/06/18 04:39:03;;;;;;;;;;;26.70;44.20;;;;;;5075093;28;19913;-62
2022/06/18 04:41:29;;;;;;;;;;;26.60;44.10;;;;;;5057116;28;20018;-62
2022/06/18 04:43:55;;;;;;;;;;;26.60;44.10;;;;;;5090794;28;19915;-62
2022/06/18 04:46:21;;;;;;;;;;;26.60;44.10;;;;;;5075128;28;19913;-62
2022/06/18 04:48:47;;;;;;;;;;;26.60;44.10;;;;;;5074971;28;19927;-62
2022/06/18 04:51:14;;;;;;;;;;;26.60;44.20;;;;;;5074420;28;21347;-62
2022/06/18 04:53:39;;;;;;;;;;;26.60;44.10;;;;;;5074884;28;20010;-62
2022/06/18 04:56:05;;;;;;;;;;;26.60;44.20;;;;;;5074862;28;19908;-62
2022/06/18 04:58:30;;;;;;;;;;;26.60;44.10;;;;;;5074831;28;19919;-62
2022/06/18 05:00:56;;;;;;;;;;;26.60;44.30;;;;;;5090337;28;20280;-61
2022/06/18 05:03:21;;;;;;;;;;;26.60;44.30;;;;;;5074940;28;19961;-61
2022/06/18 05:05:47;;;;;;;;;;;26.50;44.30;;;;;;5074780;28;19908;-62
2022/06/18 05:08:12;;;;;;;;;;;26.60;44.40;;;;;;5074553;28;19909;-62
2022/06/18 05:10:38;;;;;;;;;;;26.50;44.40;;;;;;5074646;28;19908;-62
2022/06/18 05:13:05;;;;;;;;;;;26.60;44.40;;;;;;5074542;28;20276;-62
2022/06/18 05:15:31;;;;;;;;;;;26.60;44.50;;;;;;5074732;28;20373;-62
2022/06/18 05:17:56;;;;;;;;;;;26.50;44.50;;;;;;5074491;28;20011;-62
2022/06/18 05:20:23;;;;;;;;;;;26.50;44.40;;;;;;5074517;28;19915;-62
2022/06/18 05:22:48;;;;;;;;;;;26.50;44.50;;;;;;5074663;28;19931;-62
2022/06/18 05:25:14;;;;;;;;;;;26.50;44.60;;;;;;5074271;28;19909;-62
2022/06/18 05:27:39;;;;;;;;;;;26.50;44.50;;;;;;5056872;28;19912;-62
2022/06/18 05:30:06;;;;;;;;;;;26.50;44.50;;;;;;5074251;28;19913;-62
2022/06/18 05:32:31;;;;;;;;;;;26.50;44.60;;;;;;5056233;28;20045;-62
2022/06/18 05:34:57;;;;;;;;;;;26.50;44.60;;;;;;5074127;28;19923;-62
2022/06/18 05:37:22;;;;;;;;;;;26.50;44.70;;;;;;5073916;28;19909;-62
2022/06/18 05:39:48;;;;;;;;;;;26.50;44.60;;;;;;5056155;28;20003;-62
2022/06/18 05:42:13;;;;;;;;;;;26.50;44.60;;;;;;5073944;28;20421;-62
2022/06/18 05:44:39;;;;;;;;;;;26.50;44.60;;;;;;5074185;28;20295;-62
2022/06/18 05:47:11;;;;;;;;;;;26.50;44.60;;;;;;5073769;28;19915;-62
2022/06/18 05:49:37;;;;;;;;;;;26.50;44.60;;;;;;5056170;28;19934;-62
2022/06/18 05:52:02;;;;;;;;;;;26.50;44.60;;;;;;5073713;28;19909;-62
2022/06/18 05:54:28;;;;;;;;;;;26.50;44.60;;;;;;5073633;28;19950;-62
2022/06/18 05:56:53;;;;;;;;;;;26.60;44.70;;;;;;5073851;28;19962;-62
2022/06/18 05:59:19;;;;;;;;;;;26.60;44.60;;;;;;5073505;28;19923;-62
2022/06/18 06:01:44;;;;;;;;;;;26.60;44.60;;;;;;5073629;28;19909;-61
2022/06/18 06:04:11;;;;;;;;;;;26.60;44.60;;;;;;5073630;28;19948;-61
2022/06/18 06:06:36;;;;;;;;;;;26.60;44.60;;;;;;5073544;28;20003;-62
2022/06/18 06:09:02;;;;;;;;;;;26.60;44.70;;;;;;5073424;28;20403;-61
2022/06/18 06:11:32;;;;;;;;;;;26.50;44.80;;;;;;5073816;28;19912;-62
2022/06/18 06:13:58;;;;;;;;;;;26.50;44.80;;;;;;5056196;28;20007;-62
2022/06/18 06:16:23;;;;;;;;;;;26.50;44.80;;;;;;5073464;28;19948;-62
2022/06/18 06:18:49;;;;;;;;;;;26.50;44.80;;;;;;5055379;28;20391;-62
2022/06/18 06:21:14;;;;;;;;;;;26.50;44.80;;;;;;5072890;28;19908;-62
2022/06/18 06:23:40;;;;;;;;;;;26.50;44.80;;;;;;5073339;28;19908;-62
2022/06/18 06:26:09;;;;;;;;;;;26.50;44.80;;;;;;5073158;28;19915;-62
2022/06/18 06:28:34;;;;;;;;;;;26.50;44.90;;;;;;5055413;28;19908;-62
2022/06/18 06:31:00;;;;;;;;;;;26.60;44.90;;;;;;5073156;28;19916;-62
2022/06/18 06:33:25;;;;;;;;;;;26.60;44.80;;;;;;5073118;28;19908;-62
2022/06/18 06:35:51;;;;;;;;;;;26.60;44.90;;;;;;5073396;28;19915;-62
2022/06/18 06:38:16;;;;;;;;;;;26.60;44.90;;;;;;5055076;28;20369;-62
2022/06/18 06:40:43;;;;;;;;;;;26.50;44.90;;;;;;5073075;28;19908;-61
2022/06/18 06:43:14;;;;;;;;;;;26.50;45.00;;;;;;5073277;28;20353;-62
2022/06/18 06:45:40;;;;;;;;;;;26.50;45.10;;;;;;5073043;28;19920;-62
2022/06/18 06:48:06;;;;;;;;;;;26.50;45.00;;;;;;5072915;28;19921;-61
2022/06/18 06:50:31;;;;;;;;;;;26.50;45.00;;;;;;5088439;28;19920;-62
2022/06/18 06:52:57;;;;;;;;;;;26.50;45.10;;;;;;5072899;28;19908;-62
2022/06/18 06:58:10;;;;;;;;;;;26.60;45.10;;;;;;5072929;28;20005;-62
2022/06/18 07:00:39;;;;;;;;;;;26.50;45.00;;;;;;5072935;28;19939;-61
2022/06/18 07:03:04;;;;;;;;;;;26.60;45.10;;;;;;5054928;28;19908;-61
2022/06/18 07:05:30;;;;;;;;;;;26.50;45.10;;;;;;5072898;28;20287;-62
2022/06/18 07:07:55;;;;;;;;;;;26.60;45.30;;;;;;5072840;28;19909;-62
2022/06/18 07:10:21;;;;;;;;;;;26.60;45.10;;;;;;5054814;28;20260;-62
2022/06/18 07:12:46;;;;;;;;;;;26.60;45.10;;;;;;5073079;28;19956;-62
2022/06/18 07:15:12;;;;;;;;;;;26.60;45.10;;;;;;5072791;28;19908;-62
2022/06/18 07:17:37;;;;;;;;;;;26.60;45.20;;;;;;5072983;28;19912;-62
2022/06/18 07:20:03;;;;;;;;;;;26.60;45.50;;;;;;5072641;28;20391;-62
2022/06/18 07:22:28;;;;;;;;;;;26.50;45.40;;;;;;5054715;28;20288;-62
2022/06/18 07:24:54;;;;;;;;;;;26.50;45.50;;;;;;5072734;28;19915;-62
2022/06/18 07:27:19;;;;;;;;;;;26.50;45.60;;;;;;5072682;28;20371;-61
2022/06/18 07:29:45;;;;;;;;;;;26.60;45.60;;;;;;5072617;28;20011;-62
2022/06/18 07:32:14;;;;;;;;;;;26.60;45.70;;;;;;5054719;28;19916;-61
2022/06/18 07:34:40;;;;;;;;;;;26.60;45.70;;;;;;5058625;28;19919;-62
2022/06/18 07:37:05;;;;;;;;;;;26.60;45.80;;;;;;5076415;28;20002;-62
2022/06/18 07:39:30;;;;;;;;;;;26.60;45.70;;;;;;5058456;28;19913;-61
2022/06/18 07:41:56;;;;;;;;;;;26.60;45.50;;;;;;5076256;28;19908;-62
2022/06/18 07:44:22;;;;;;;;;;;26.70;45.70;;;;;;5076179;28;19919;-62
2022/06/18 07:46:47;;;;;;;;;;;26.70;45.60;;;;;;5076217;28;19958;-62
2022/06/18 07:49:16;;;;;;;;;;;26.70;46.20;;;;;;5076024;28;19956;-62
2022/06/18 07:51:41;;;;;;;;;;;26.80;45.70;;;;;;5076121;28;19909;-61
2022/06/18 07:54:07;;;;;;;;;;;26.70;45.60;;;;;;5075987;28;20309;-62
2022/06/18 07:56:32;;;;;;;;;;;26.70;45.60;;;;;;5076230;28;19958;-62
2022/06/18 07:58:58;;;;;;;;;;;26.70;45.60;;;;;;5075982;28;20020;-62
2022/06/18 08:01:24;;;;;;;;;;;26.70;45.70;;;;;;5057961;28;19908;-62
2022/06/18 08:03:49;;;;;;;;;;;26.70;45.60;;;;;;5091540;28;19958;-62
2022/06/18 08:06:15;;;;;;;;;;;26.70;45.50;;;;;;5075802;28;19908;-62
2022/06/18 08:08:40;;;;;;;;;;;26.80;45.60;;;;;;5075891;28;19915;-62
2022/06/18 08:11:12;;;;;;;;;;;26.70;45.80;;;;;;5075650;28;20021;-62
2022/06/18 08:13:38;;;;;;;;;;;26.70;45.80;;;;;;5075712;28;19908;-62
2022/06/18 08:16:04;;;;;;;;;;;26.70;46.00;;;;;;5075714;28;20288;-62
2022/06/18 08:18:29;;;;;;;;;;;26.70;46.00;;;;;;5075792;28;19986;-62
2022/06/18 08:20:55;;;;;;;;;;;26.70;45.90;;;;;;5091171;28;19947;-62
2022/06/18 08:23:21;;;;;;;;;;;26.70;46.10;;;;;;5075573;28;19908;-62
2022/06/18 08:25:46;;;;;;;;;;;26.70;45.90;;;;;;5040889;28;19916;-61
2022/06/18 08:28:12;;;;;;;;;;;26.70;46.00;;;;;;5075355;28;20003;-62
2022/06/18 08:30:37;;;;;;;;;;;26.70;46.00;;;;;;5057518;28;19951;-61
2022/06/18 08:33:03;;;;;;;;;;;26.70;46.00;;;;;;5075423;28;20353;-62
2022/06/18 08:35:28;;;;;;;;;;;26.80;46.10;;;;;;5075287;28;19908;-62
2022/06/18 08:37:54;;;;;;;;;;;26.80;46.10;;;;;;5075169;28;19916;-62
2022/06/18 08:40:34;;;;;;;;;;;26.80;46.10;;;;;;5075211;28;20376;-62
2022/06/18 08:43:04;;;;;;;;;;;26.80;46.10;;;;;;5075210;28;19913;-62
2022/06/18 08:45:29;;;;;;;;;;;26.80;46.10;;;;;;5057173;28;20505;-62
2022/06/18 08:47:58;;;;;;;;;;;26.80;46.10;;;;;;5075070;28;19963;-62
2022/06/18 08:50:39;;;;;;;;;;;26.80;46.00;;;;;;5057155;28;19912;-62
2022/06/18 08:53:30;;;;;;;;;;;26.90;46.10;;;;;;5074934;28;19909;-62
2022/06/18 08:55:56;;;;;;;;;;;26.90;46.10;;;;;;5071743;28;19909;-62
2022/06/18 08:58:36;;;;;;;;;;;26.90;46.10;;;;;;5074824;28;19936;-62
2022/06/18 09:01:09;;;;;;;;;;;26.90;46.00;;;;;;5056982;28;19962;-62
2022/06/18 09:03:53;;;;;;;;;;;26.90;46.70;;;;;;5074776;28;19959;-62
2022/06/18 09:06:26;;;;;;;;;;;26.90;46.10;;;;;;5074597;28;19909;-62
2022/06/18 09:09:10;;;;;;;;;;;26.90;46.00;;;;;;5056830;28;19916;-62
2022/06/18 09:11:39;;;;;;;;;;;26.90;46.10;;;;;;5074603;28;20335;-62
2022/06/18 09:14:08;;;;;;;;;;;26.90;46.10;;;;;;5074603;28;19966;-62
2022/06/18 09:16:35;;;;;;;;;;;26.90;46.10;;;;;;5056731;28;19909;-62
2022/06/18 09:19:01;;;;;;;;;;;27.00;46.20;;;;;;5056675;28;19912;-62
2022/06/18 09:21:28;;;;;;;;;;;27.00;46.10;;;;;;5090132;28;19923;-62
2022/06/18 09:24:04;;;;;;;;;;;27.00;46.10;;;;;;5056557;28;19908;-62
2022/06/18 09:26:32;;;;;;;;;;;27.00;46.00;;;;;;5056473;28;19918;-62
2022/06/18 09:29:01;;;;;;;;;;;27.00;46.00;;;;;;5056476;28;20261;-62
2022/06/18 09:31:29;;;;;;;;;;;27.00;45.90;;;;;;5056789;28;20384;-62
2022/06/18 09:33:59;;;;;;;;;;;27.00;46.00;;;;;;5089839;28;20376;-62
2022/06/18 09:36:30;;;;;;;;;;;27.00;46.00;;;;;;5056303;28;19919;-62
2022/06/18 09:39:08;;;;;;;;;;;27.00;46.00;;;;;;5056215;28;19920;-62
2022/06/18 09:41:37;;;;;;;;;;;27.10;46.10;;;;;;5056484;28;19908;-62
2022/06/18 09:44:06;;;;;;;;;;;27.00;46.10;;;;;;5073955;28;19908;-62
2022/06/18 09:46:34;;;;;;;;;;;27.00;46.10;;;;;;5056710;28;20057;-62
2022/06/18 09:48:59;;;;;;;;;;;27.10;46.10;;;;;;5052812;28;19944;-62
2022/06/18 09:51:28;;;;;;;;;;;27.10;46.10;;;;;;5053762;28;19909;-62
2022/06/18 09:53:54;;;;;;;;;;;27.10;46.10;;;;;;5052712;28;19998;-62
2022/06/18 09:56:23;;;;;;;;;;;27.10;46.00;;;;;;5053079;28;20384;-62
2022/06/18 09:58:51;;;;;;;;;;;27.10;46.00;;;;;;5053990;28;20343;-62
2022/06/18 10:01:20;;;;;;;;;;;27.10;46.10;;;;;;5052538;28;19942;-62
2022/06/18 10:06:53;;;;;;;;;;;27.10;46.10;;;;;;5053742;28;20499;-62
2022/06/18 10:09:28;;;;;;;;;;;27.10;46.10;;;;;;5052506;28;19909;-62
2022/06/18 10:11:53;;;;;;;;;;;27.10;46.10;;;;;;5053727;28;20274;-62
2022/06/18 10:14:20;;;;;;;;;;;27.10;46.20;;;;;;5052136;28;19917;-62
2022/06/18 10:16:53;;;;;;;;;;;27.10;46.30;;;;;;5035613;28;19931;-62
2022/06/18 10:19:24;;;;;;;;;;;27.10;46.30;;;;;;5053336;28;19913;-62
2022/06/18 10:21:53;;;;;;;;;;;27.10;46.30;;;;;;5052185;28;19927;-62
2022/06/18 10:24:19;;;;;;;;;;;27.10;46.40;;;;;;5053249;28;19956;-62
2022/06/18 10:26:58;;;;;;;;;;;27.10;46.30;;;;;;5035528;28;20400;-62
2022/06/18 10:29:27;;;;;;;;;;;27.10;46.30;;;;;;5051979;28;19913;-62
2022/06/18 10:32:01;;;;;;;;;;;27.10;46.30;;;;;;5052058;28;19908;-62
2022/06/18 10:34:45;;;;;;;;;;;27.10;46.40;;;;;;5052003;28;19908;-62
2022/06/18 10:37:14;;;;;;;;;;;27.20;46.50;;;;;;5053408;28;20383;-62
2022/06/18 10:39:46;;;;;;;;;;;27.20;46.40;;;;;;5052932;28;20431;-62
2022/06/18 10:42:30;;;;;;;;;;;27.20;47.00;;;;;;5052994;28;19909;-62
2022/06/18 10:45:17;;;;;;;;;;;27.20;46.50;;;;;;5053019;28;19944;-62
2022/06/18 10:47:43;;;;;;;;;;;27.20;46.50;;;;;;5059433;28;19939;-62
2022/06/18 10:50:11;;;;;;;;;;;27.20;46.50;;;;;;5055017;28;19908;-62
2022/06/18 10:52:37;;;;;;;;;;;27.20;46.50;;;;;;5072880;28;20372;-62
2022/06/18 10:55:13;;;;;;;;;;;27.20;46.50;;;;;;5073017;28;19908;-62
2022/06/18 10:57:38;;;;;;;;;;;27.20;46.60;;;;;;5072970;28;20436;-62
2022/06/18 11:00:08;;;;;;;;;;;27.20;47.20;;;;;;5072887;28;19908;-62
2022/06/18 11:02:34;;;;;;;;;;;27.20;46.60;;;;;;5072943;28;19909;-62
2022/06/18 11:05:01;;;;;;;;;;;27.20;46.70;;;;;;5055166;28;19955;-61
2022/06/18 11:07:27;;;;;;;;;;;27.20;47.30;;;;;;5056981;28;19944;-62
2022/06/18 11:10:06;;;;;;;;;;;27.20;46.60;;;;;;5076861;28;20304;-62
2022/06/18 11:12:35;;;;;;;;;;;27.20;46.70;;;;;;5059061;28;19909;-62
2022/06/18 11:15:01;;;;;;;;;;;27.30;46.70;;;;;;5058878;28;19919;-62
2022/06/18 11:17:28;;;;;;;;;;;27.30;46.70;;;;;;5076771;28;20552;-61
2022/06/18 11:19:54;;;;;;;;;;;27.30;46.70;;;;;;5076707;28;19909;-62
2022/06/18 11:22:25;;;;;;;;;;;27.30;46.70;;;;;;5058824;28;19928;-62
2022/06/18 11:24:52;;;;;;;;;;;27.30;46.60;;;;;;5058869;28;19908;-62
2022/06/18 11:27:18;;;;;;;;;;;27.40;46.70;;;;;;5076614;28;19954;-62
2022/06/18 11:29:53;;;;;;;;;;;27.40;46.60;;;;;;5076549;28;20277;-62
2022/06/18 11:32:25;;;;;;;;;;;27.40;46.60;;;;;;5058547;28;19915;-62
2022/06/18 11:34:51;;;;;;;;;;;27.40;46.70;;;;;;5058608;28;19916;-62
2022/06/18 11:37:24;;;;;;;;;;;27.40;46.70;;;;;;5058577;28;19915;-62
2022/06/18 11:39:54;;;;;;;;;;;27.40;46.70;;;;;;5076202;28;19931;-62
2022/06/18 11:42:31;;;;;;;;;;;27.40;46.70;;;;;;5076371;28;19912;-62
2022/06/18 11:45:15;;;;;;;;;;;27.40;46.80;;;;;;5058612;28;19913;-62
2022/06/18 11:47:45;;;;;;;;;;;27.40;46.80;;;;;;5076083;28;19920;-62
2022/06/18 11:50:18;;;;;;;;;;;27.40;46.90;;;;;;5076386;28;19913;-62
2022/06/18 11:52:48;;;;;;;;;;;27.40;46.90;;;;;;5076212;28;20359;-62
2022/06/18 11:55:32;;;;;;;;;;;27.40;47.00;;;;;;5076125;28;19909;-63
2022/06/18 11:58:04;;;;;;;;;;;27.40;47.00;;;;;;5075964;28;20380;-62
2022/06/18 12:00:37;;;;;;;;;;;27.40;47.00;;;;;;5058123;28;19938;-62
2022/06/18 12:03:09;;;;;;;;;;;27.40;47.00;;;;;;5057968;28;19915;-62
2022/06/18 12:05:35;;;;;;;;;;;27.40;47.00;;;;;;5058178;28;19962;-62
2022/06/18 12:08:01;;;;;;;;;;;27.40;47.10;;;;;;5076133;28;20368;-62
2022/06/18 12:10:29;;;;;;;;;;;27.50;47.10;;;;;;5075724;28;19908;-62
2022/06/18 12:13:27;;;;;;;;;;;27.50;47.00;;;;;;5075769;28;20315;-62
2022/06/18 12:16:14;;;;;;;;;;;27.50;47.00;;;;;;5041987;28;19909;-62
2022/06/18 12:18:39;;;;;;;;;;;27.50;47.10;;;;;;5056969;28;19912;-62
2022/06/18 12:21:20;;;;;;;;;;;27.50;47.00;;;;;;5057534;28;19909;-62
2022/06/18 12:23:48;;;;;;;;;;;27.70;47.00;;;;;;5075452;28;20003;-62
2022/06/18 12:26:32;;;;;;;;;;;27.70;46.90;;;;;;5075609;28;19912;-62
2022/06/18 12:29:00;;;;;;;;;;;27.70;47.50;;;;;;5075434;28;19908;-62
2022/06/18 12:31:27;;;;;;;;;;;27.80;46.70;;;;;;5075360;28;20395;-62
2022/06/18 12:34:01;;;;;;;;;;;27.90;46.70;;;;;;5057583;28;19930;-62
2022/06/18 12:36:26;;;;;;;;;;;27.90;46.70;;;;;;5075426;28;20352;-62
2022/06/18 12:39:12;;;;;;;;;;;27.80;46.60;;;;;;5075181;28;19919;-62
2022/06/18 12:41:41;;;;;;;;;;;27.80;46.60;;;;;;5064364;28;20374;-62
2022/06/18 12:44:15;;;;;;;;;;;27.90;46.60;;;;;;5075411;28;19908;-62
2022/06/18 12:46:44;;;;;;;;;;;27.90;46.50;;;;;;5075099;28;19966;-62
2022/06/18 12:49:13;;;;;;;;;;;27.90;46.50;;;;;;5057034;28;19924;-62
2022/06/18 12:51:55;;;;;;;;;;;27.90;46.50;;;;;;5075065;28;19909;-62
2022/06/18 12:54:42;;;;;;;;;;;28.00;46.50;;;;;;5057174;28;19913;-62
2022/06/18 12:57:14;;;;;;;;;;;28.00;46.50;;;;;;5074993;28;20356;-62
2022/06/18 12:59:43;;;;;;;;;;;28.00;46.50;;;;;;5074819;28;19917;-62
2022/06/18 13:02:12;;;;;;;;;;;28.00;46.40;;;;;;5057024;28;19909;-62
2022/06/18 13:04:46;;;;;;;;;;;28.00;46.40;;;;;;5057167;28;20363;-62
2022/06/18 13:07:18;;;;;;;;;;;28.10;46.50;;;;;;5056899;28;19909;-62
2022/06/18 13:09:50;;;;;;;;;;;28.10;46.40;;;;;;5074698;28;19961;-62
2022/06/18 13:12:16;;;;;;;;;;;28.10;46.40;;;;;;5074587;28;19908;-62
2022/06/18 13:14:46;;;;;;;;;;;28.10;46.40;;;;;;5074567;28;20284;-62
2022/06/18 13:17:15;;;;;;;;;;;28.10;46.50;;;;;;5056953;28;19913;-62
2022/06/18 13:19:42;;;;;;;;;;;28.10;46.60;;;;;;5074393;28;19920;-62
2022/06/18 13:22:07;;;;;;;;;;;28.10;46.60;;;;;;5073155;28;20365;-62
2022/06/18 13:30:01;;;;;;;;;;;28.20;46.50;;;;;;5080098;28;19915;-62
2022/06/18 13:32:30;;;;;;;;;;;28.20;46.50;;;;;;5074004;28;19908;-62
2022/06/18 13:35:16;;;;;;;;;;;28.20;46.60;;;;;;5072900;28;19908;-62
2022/06/18 13:37:53;;;;;;;;;;;28.20;46.60;;;;;;5056312;28;19909;-63
2022/06/18 13:40:48;;;;;;;;;;;28.20;46.70;;;;;;5056244;28;19955;-62
2022/06/18 13:43:18;;;;;;;;;;;28.20;46.70;;;;;;5060925;28;19908;-62
2022/06/18 13:45:47;;;;;;;;;;;28.20;46.70;;;;;;5056150;28;19916;-62
2022/06/18 13:48:14;;;;;;;;;;;28.20;46.60;;;;;;5073732;28;20006;-62
2022/06/18 13:50:44;;;;;;;;;;;28.20;46.60;;;;;;5073834;28;19934;-62
2022/06/18 13:53:20;;;;;;;;;;;28.30;46.70;;;;;;5056294;28;19934;-62
2022/06/18 13:55:46;;;;;;;;;;;28.30;46.70;;;;;;5073856;28;20357;-62
2022/06/18 13:58:19;;;;;;;;;;;28.30;46.60;;;;;;5073973;28;19958;-62
2022/06/18 14:00:45;;;;;;;;;;;28.30;46.70;;;;;;5073691;28;19916;-62
2022/06/18 14:03:15;;;;;;;;;;;28.30;46.60;;;;;;5055790;28;19912;-62
2022/06/18 14:05:40;;;;;;;;;;;28.30;46.60;;;;;;5055795;28;20050;-62
2022/06/18 14:08:17;;;;;;;;;;;28.30;46.60;;;;;;5073492;28;19978;-62
2022/06/18 14:10:43;;;;;;;;;;;28.30;46.60;;;;;;5055622;28;19932;-62
2022/06/18 14:13:09;;;;;;;;;;;28.30;46.60;;;;;;5055715;28;19909;-62
2022/06/18 14:15:34;;;;;;;;;;;28.40;46.60;;;;;;5073422;28;19908;-62
2022/06/18 14:18:00;;;;;;;;;;;28.40;46.60;;;;;;5055496;28;19916;-62
2022/06/18 14:20:33;;;;;;;;;;;28.40;46.50;;;;;;5055405;28;19908;-62
2022/06/18 14:23:12;;;;;;;;;;;28.40;46.50;;;;;;5073302;28;19995;-62
2022/06/18 14:25:56;;;;;;;;;;;28.40;46.70;;;;;;5073556;28;19908;-62
2022/06/18 14:28:29;;;;;;;;;;;28.40;46.70;;;;;;5073265;28;20256;-62
2022/06/18 14:31:00;;;;;;;;;;;28.40;46.70;;;;;;5055426;28;19908;-62
2022/06/18 14:33:29;;;;;;;;;;;28.40;46.70;;;;;;5073185;28;19912;-62
2022/06/18 14:36:00;;;;;;;;;;;28.40;46.60;;;;;;5073126;28;19908;-62
2022/06/18 14:38:26;;;;;;;;;;;28.40;46.60;;;;;;5072976;28;19919;-62
2022/06/18 14:43:42;;;;;;;;;;;28.40;46.70;;;;;;5057913;28;19915;-62